createdAt,value
2019-04-23T00:01:08.029Z,15.40
2019-04-23T00:03:28.323Z,15.30
2019-04-23T00:06:06.978Z,15.30
2019-04-23T00:08:37.711Z,15.30
2019-04-23T00:11:05.655Z,15.20
2019-04-23T00:13:49.858Z,15.20
2019-04-23T00:16:16.006Z,15.20
2019-04-23T00:18:42.667Z,15.20
2019-04-23T00:21:23.507Z,15.10
2019-04-23T00:23:53.333Z,15.10
2019-04-23T00:26:24.015Z,15.10
2019-04-23T00:31:24.020Z,15.00
2019-04-23T00:33:57.451Z,14.90
2019-04-23T00:38:55.780Z,14.80
2019-04-23T00:41:25.012Z,14.80
2019-04-23T00:44:15.067Z,14.80
2019-04-23T00:49:06.132Z,14.70
2019-04-23T00:51:33.069Z,14.70
2019-04-23T00:54:06.453Z,14.70
2019-04-23T00:59:08.668Z,14.60
2019-04-23T01:01:47.752Z,14.70
2019-04-23T01:04:10.120Z,14.60
2019-04-23T01:06:39.369Z,14.60
2019-04-23T01:09:08.810Z,14.60
2019-04-23T01:11:43.298Z,14.60
2019-04-23T01:14:13.218Z,14.50
2019-04-23T01:16:42.550Z,14.50
2019-04-23T01:19:31.604Z,14.50
2019-04-23T01:21:47.840Z,14.40
2019-04-23T01:24:31.486Z,14.40
2019-04-23T01:27:53.016Z,14.40
2019-04-23T01:32:36.983Z,14.30
2019-04-23T01:35:13.896Z,14.30
2019-04-23T01:37:41.522Z,14.20
2019-04-23T01:40:12.386Z,14.20
2019-04-23T01:47:47.235Z,14.10
2019-04-23T01:55:24.742Z,14.00
2019-04-23T01:58:04.525Z,14.00
2019-04-23T02:00:24.135Z,14.00
2019-04-23T02:02:55.687Z,13.90
2019-04-23T02:08:00.309Z,13.90
2019-04-23T02:10:36.985Z,13.90
2019-04-23T02:15:31.854Z,13.70
2019-04-23T02:18:08.085Z,13.70
2019-04-23T02:23:19.653Z,13.70
2019-04-23T02:28:19.089Z,13.60
2019-04-23T02:31:12.014Z,13.60
2019-04-23T02:41:04.730Z,13.40
2019-04-23T02:46:02.554Z,13.40
2019-04-23T02:51:04.088Z,13.40
2019-04-23T02:56:17.120Z,13.30
2019-04-23T02:58:43.896Z,13.30
2019-04-23T03:03:42.238Z,13.30
2019-04-23T03:06:09.669Z,13.20
2019-04-23T03:11:20.802Z,13.30
2019-04-23T03:16:33.884Z,13.20
2019-04-23T03:18:56.277Z,13.10
2019-04-23T03:22:00.279Z,13.10
2019-04-23T03:24:34.223Z,13.10
2019-04-23T03:27:16.520Z,13.10
2019-04-23T03:29:35.346Z,13.10
2019-04-23T03:35:31.178Z,13.00
2019-04-23T03:39:40.134Z,13.00
2019-04-23T03:42:01.987Z,13.00
2019-04-23T03:44:37.641Z,12.90
2019-04-23T03:49:41.028Z,12.90
2019-04-23T03:52:16.916Z,12.90
2019-04-23T03:57:26.945Z,12.80
2019-04-23T03:59:47.090Z,12.80
2019-04-23T04:07:22.080Z,12.80
2019-04-23T04:12:21.148Z,12.70
2019-04-23T04:15:10.517Z,12.70
2019-04-23T04:17:20.104Z,12.70
2019-04-23T04:22:28.462Z,12.80
2019-04-23T04:24:57.932Z,12.80
2019-04-23T04:30:14.599Z,12.90
2019-04-23T04:32:54.477Z,12.90
2019-04-23T04:43:01.984Z,12.90
2019-04-23T04:47:41.345Z,13.10
2019-04-23T04:55:16.224Z,13.30
2019-04-23T05:03:03.762Z,13.40
2019-04-23T05:05:37.608Z,13.50
2019-04-23T05:13:22.814Z,13.80
2019-04-23T05:15:39.005Z,13.80
2019-04-23T05:18:17.443Z,13.90
2019-04-23T05:20:46.876Z,13.90
2019-04-23T05:23:42.927Z,14.00
2019-04-23T05:26:23.948Z,14.00
2019-04-23T05:28:55.532Z,14.00
2019-04-23T05:33:57.174Z,14.20
2019-04-23T05:41:34.841Z,14.30
2019-04-23T05:43:55.816Z,14.40
2019-04-23T05:46:29.514Z,14.50
2019-04-23T05:53:58.397Z,14.60
2019-04-23T05:56:30.684Z,14.60
2019-04-23T05:59:07.277Z,14.70
2019-04-23T06:09:13.882Z,15.00
2019-04-23T06:14:19.150Z,15.20
2019-04-23T06:17:21.546Z,15.30
2019-04-23T06:22:10.751Z,15.50
2019-04-23T06:24:21.145Z,15.60
2019-04-23T06:26:51.715Z,15.70
2019-04-23T06:31:48.845Z,15.70
2019-04-23T06:34:21.713Z,15.80
2019-04-23T06:36:51.152Z,15.80
2019-04-23T06:39:26.315Z,15.80
2019-04-23T06:44:37.694Z,16.00
2019-04-23T06:47:08.302Z,16.00
2019-04-23T06:49:44.107Z,16.10
2019-04-23T06:54:51.320Z,16.20
2019-04-23T06:57:16.310Z,16.30
2019-04-23T06:59:48.427Z,16.40
2019-04-23T07:02:20.105Z,16.40
2019-04-23T07:04:57.191Z,16.50
2019-04-23T07:09:51.718Z,16.70
2019-04-23T07:14:55.442Z,16.70
2019-04-23T07:17:25.061Z,16.70
2019-04-23T07:20:04.621Z,16.90
2019-04-23T07:22:28.404Z,17.00
2019-04-23T07:25:00.072Z,17.10
2019-04-23T07:27:36.025Z,17.10
2019-04-23T07:30:11.631Z,17.20
2019-04-23T07:32:35.838Z,17.20
2019-04-23T07:37:51.710Z,17.20
2019-04-23T07:43:06.446Z,17.20
2019-04-23T07:45:54.858Z,17.20
2019-04-23T07:48:16.425Z,17.30
2019-04-23T07:50:54.980Z,17.30
2019-04-23T07:56:05.898Z,17.40
2019-04-23T07:58:29.117Z,17.50
2019-04-23T08:01:07.025Z,17.60
2019-04-23T08:06:01.086Z,17.80
2019-04-23T08:08:36.436Z,17.90
2019-04-23T08:11:33.110Z,17.90
2019-04-23T08:13:58.706Z,17.90
2019-04-23T08:16:28.908Z,18.00
2019-04-23T08:21:18.174Z,18.10
2019-04-23T08:26:42.531Z,18.20
2019-04-23T08:29:15.419Z,18.30
2019-04-23T08:31:45.170Z,18.30
2019-04-23T08:36:49.970Z,18.30
2019-04-23T08:39:18.264Z,18.40
2019-04-23T08:42:09.538Z,18.40
2019-04-23T08:44:29.723Z,18.40
2019-04-23T08:47:06.885Z,18.60
2019-04-23T08:49:47.026Z,18.70
2019-04-23T08:52:25.530Z,18.90
2019-04-23T08:55:02.617Z,19.00
2019-04-23T08:57:26.882Z,19.10
2019-04-23T09:00:17.843Z,19.30
2019-04-23T09:02:47.697Z,19.40
2019-04-23T09:05:23.473Z,19.50
2019-04-23T09:08:05.298Z,19.50
2019-04-23T09:10:29.789Z,19.60
2019-04-23T09:13:11.217Z,19.70
2019-04-23T09:15:37.165Z,19.70
2019-04-23T09:18:05.170Z,19.80
2019-04-23T09:22:58.160Z,20.00
2019-04-23T09:25:37.073Z,20.00
2019-04-23T09:28:00.359Z,20.10
2019-04-23T09:30:45.323Z,20.30
2019-04-23T09:33:21.140Z,20.30
2019-04-23T09:35:48.616Z,20.30
2019-04-23T09:38:39.895Z,20.50
2019-04-23T09:46:55.777Z,20.60
2019-04-23T09:49:26.108Z,20.90
2019-04-23T09:52:02.506Z,21.10
2019-04-23T09:54:27.239Z,21.30
2019-04-23T09:56:52.282Z,21.30
2019-04-23T09:59:49.600Z,21.40
2019-04-23T10:02:13.176Z,21.50
2019-04-23T10:04:40.460Z,21.60
2019-04-23T10:07:07.253Z,21.80
2019-04-23T10:09:27.346Z,22.10
2019-04-23T10:11:56.944Z,22.10
2019-04-23T10:14:26.507Z,22.10
2019-04-23T10:16:57.931Z,22.10
2019-04-23T10:19:28.757Z,22.30
2019-04-23T10:21:59.816Z,22.50
2019-04-23T10:24:30.815Z,22.60
2019-04-23T10:27:01.866Z,22.60
2019-04-23T10:29:36.347Z,22.70
2019-04-23T10:32:07.518Z,22.90
2019-04-23T10:34:46.021Z,23.10
2019-04-23T10:37:09.460Z,23.20
2019-04-23T10:39:43.079Z,23.30
2019-04-23T10:42:12.008Z,23.40
2019-04-23T10:44:55.482Z,23.60
2019-04-23T10:50:49.571Z,25.20
2019-04-23T10:53:26.600Z,26.30
2019-04-23T10:55:58.962Z,27.30
2019-04-23T10:58:24.686Z,28.00
2019-04-23T11:00:53.794Z,28.20
2019-04-23T11:03:46.424Z,29.00
2019-04-23T11:08:25.611Z,31.60
2019-04-23T11:11:03.762Z,31.80
2019-04-23T11:13:31.498Z,32.40
2019-04-23T11:16:25.442Z,32.40
2019-04-23T11:18:46.818Z,33.30
2019-04-23T11:21:13.670Z,33.70
2019-04-23T11:23:34.475Z,33.50
2019-04-23T11:26:13.894Z,34.50
2019-04-23T11:28:38.454Z,35.00
2019-04-23T11:31:25.612Z,33.80
2019-04-23T11:33:51.038Z,34.10
2019-04-23T11:38:54.752Z,32.90
2019-04-23T11:41:35.983Z,32.80
2019-04-23T11:44:04.031Z,33.00
2019-04-23T11:46:39.774Z,32.90
2019-04-23T11:51:45.965Z,31.90
2019-04-23T11:59:25.884Z,31.50
2019-04-23T12:01:52.323Z,31.30
2019-04-23T12:07:00.208Z,31.70
2019-04-23T12:09:43.035Z,31.50
2019-04-23T12:12:10.539Z,31.90
2019-04-23T12:17:24.706Z,31.60
2019-04-23T12:22:22.268Z,31.10
2019-04-23T12:25:12.777Z,31.50
2019-04-23T12:29:52.668Z,32.40
2019-04-23T12:42:53.950Z,31.80
2019-04-23T12:48:11.280Z,32.30
2019-04-23T12:50:42.208Z,32.20
2019-04-23T12:55:30.270Z,31.70
2019-04-23T12:57:51.472Z,31.80
2019-04-23T13:00:27.082Z,31.90
2019-04-23T13:03:12.492Z,31.80
2019-04-23T13:05:27.029Z,32.00
2019-04-23T13:07:58.506Z,32.40
2019-04-23T13:13:07.781Z,32.60
2019-04-23T13:15:48.848Z,32.70
2019-04-23T13:18:03.116Z,33.10
2019-04-23T13:20:36.935Z,32.80
2019-04-23T13:26:00.432Z,33.00
2019-04-23T13:28:36.143Z,32.70
2019-04-23T13:31:08.441Z,32.20
2019-04-23T13:33:39.077Z,31.90
2019-04-23T13:36:18.956Z,31.90
2019-04-23T13:38:47.342Z,32.00
2019-04-23T13:41:17.173Z,32.20
2019-04-23T13:43:40.535Z,32.00
2019-04-23T13:46:12.843Z,31.60
2019-04-23T13:48:42.133Z,31.20
2019-04-23T13:54:01.627Z,30.90
2019-04-23T13:56:24.491Z,30.70
2019-04-23T13:58:51.082Z,30.70
2019-04-23T14:01:27.782Z,30.60
2019-04-23T14:08:59.625Z,30.00
2019-04-23T14:14:16.731Z,30.60
2019-04-23T14:16:35.782Z,30.80
2019-04-23T14:21:34.573Z,32.10
2019-04-23T14:26:34.063Z,32.30
2019-04-23T14:29:04.360Z,32.30
2019-04-23T14:31:36.945Z,32.60
2019-04-23T14:36:42.534Z,32.10
2019-04-23T14:39:21.676Z,31.70
2019-04-23T14:41:42.550Z,31.40
2019-04-23T14:49:35.960Z,30.60
2019-04-23T14:55:17.422Z,30.50
2019-04-23T14:57:19.952Z,30.30
2019-04-23T14:59:41.720Z,30.00
2019-04-23T15:02:13.690Z,29.60
2019-04-23T15:04:39.777Z,29.40
2019-04-23T15:07:15.646Z,29.10
2019-04-23T15:09:57.665Z,28.90
2019-04-23T15:12:23.130Z,28.70
2019-04-23T15:15:02.049Z,28.50
2019-04-23T15:17:28.816Z,28.40
2019-04-23T15:20:00.214Z,28.20
2019-04-23T15:22:42.221Z,27.90
2019-04-23T15:25:15.305Z,27.80
2019-04-23T15:29:56.028Z,27.50
2019-04-23T15:35:31.364Z,27.10
2019-04-23T15:40:25.323Z,26.80
2019-04-23T15:43:04.228Z,26.70
2019-04-23T15:45:28.903Z,26.60
2019-04-23T15:48:10.271Z,26.50
2019-04-23T15:53:02.607Z,26.20
2019-04-23T15:55:43.827Z,26.10
2019-04-23T16:00:43.302Z,26.00
2019-04-23T16:02:43.962Z,25.90
2019-04-23T16:05:15.187Z,25.70
2019-04-23T16:08:04.630Z,25.50
2019-04-23T16:10:57.197Z,25.10
2019-04-23T16:13:42.657Z,24.90
2019-04-23T16:15:52.389Z,24.80
2019-04-23T16:18:43.717Z,24.80
2019-04-23T16:21:20.386Z,24.70
2019-04-23T16:23:42.229Z,24.70
2019-04-23T16:26:19.655Z,24.60
2019-04-23T16:29:07.418Z,24.40
2019-04-23T16:31:20.771Z,24.40
2019-04-23T16:33:48.886Z,24.30
2019-04-23T16:36:19.595Z,24.20
2019-04-23T16:38:55.693Z,24.20
2019-04-23T16:41:25.675Z,24.10
2019-04-23T16:46:26.832Z,24.00
2019-04-23T16:49:13.065Z,23.90
2019-04-23T16:54:06.340Z,23.80
2019-04-23T16:59:07.288Z,23.70
2019-04-23T17:01:26.440Z,23.70
2019-04-23T17:04:03.688Z,23.60
2019-04-23T17:06:32.303Z,23.50
2019-04-23T17:09:07.012Z,23.50
2019-04-23T17:11:33.977Z,23.40
2019-04-23T17:14:09.835Z,23.40
2019-04-23T17:19:16.478Z,23.30
2019-04-23T17:21:38.974Z,23.30
2019-04-23T17:24:20.909Z,23.20
2019-04-23T17:27:03.652Z,23.20
2019-04-23T17:29:21.325Z,23.10
2019-04-23T17:31:38.356Z,23.10
2019-04-23T17:34:24.341Z,23.00
2019-04-23T17:37:10.455Z,22.90
2019-04-23T17:39:57.649Z,22.90
2019-04-23T17:47:43.883Z,22.60
2019-04-23T17:50:26.560Z,22.50
2019-04-23T17:52:52.643Z,22.40
2019-04-23T17:55:15.101Z,22.40
2019-04-23T18:00:33.582Z,22.20
2019-04-23T18:05:16.311Z,22.10
2019-04-23T18:10:27.484Z,22.00
2019-04-23T18:12:57.629Z,21.90
2019-04-23T18:15:17.539Z,21.90
2019-04-23T18:20:31.641Z,21.80
2019-04-23T18:23:06.657Z,21.70
2019-04-23T18:25:45.695Z,21.70
2019-04-23T18:28:08.946Z,21.60
2019-04-23T18:30:51.180Z,21.50
2019-04-23T18:33:51.217Z,21.50
2019-04-23T18:35:44.502Z,21.50
2019-04-23T18:38:24.838Z,21.40
2019-04-23T18:41:02.048Z,21.40
2019-04-23T18:43:29.371Z,21.30
2019-04-23T18:46:03.920Z,21.20
2019-04-23T18:56:11.181Z,20.80
2019-04-23T18:58:49.720Z,20.70
2019-04-23T19:04:00.322Z,20.60
2019-04-23T19:09:10.464Z,20.50
2019-04-23T19:12:08.636Z,20.40
2019-04-23T19:14:35.222Z,20.30
2019-04-23T19:17:32.960Z,20.30
2019-04-23T19:19:38.247Z,20.20
2019-04-23T19:24:31.374Z,20.10
2019-04-23T19:29:47.870Z,20.00
2019-04-23T19:32:01.562Z,19.90
2019-04-23T19:37:18.174Z,19.80
2019-04-23T19:42:33.288Z,19.60
2019-04-23T19:44:44.113Z,19.50
2019-04-23T19:47:19.380Z,19.50
2019-04-23T19:49:41.975Z,19.40
2019-04-23T19:52:12.749Z,19.40
2019-04-23T19:57:23.578Z,19.30
2019-04-23T20:02:32.212Z,19.20
2019-04-23T20:04:56.072Z,19.10
2019-04-23T20:07:32.917Z,19.20
2019-04-23T20:09:51.952Z,19.10
2019-04-23T20:12:28.297Z,19.10
2019-04-23T20:14:56.493Z,19.10
2019-04-23T20:17:39.634Z,19.10
2019-04-23T20:20:04.097Z,19.00
2019-04-23T20:22:45.124Z,19.00
2019-04-23T20:25:20.844Z,19.00
2019-04-23T20:30:21.315Z,18.90
2019-04-23T20:38:22.209Z,18.70
2019-04-23T20:40:26.497Z,18.70
2019-04-23T20:45:20.410Z,18.70
2019-04-23T20:47:51.467Z,18.60
2019-04-23T20:50:19.875Z,18.60
2019-04-23T20:52:54.657Z,18.50
2019-04-23T20:58:36.564Z,18.40
2019-04-23T21:01:18.618Z,18.40
2019-04-23T21:03:47.306Z,18.30
2019-04-23T21:06:14.751Z,18.30
2019-04-23T21:09:03.885Z,18.20
2019-04-23T21:11:14.183Z,18.20
2019-04-23T21:18:49.307Z,18.10
2019-04-23T21:21:27.842Z,18.10
2019-04-23T21:23:55.093Z,18.00
2019-04-23T21:26:17.397Z,18.00
2019-04-23T21:28:58.630Z,17.90
2019-04-23T21:31:40.443Z,17.90
2019-04-23T21:34:08.447Z,17.90
2019-04-23T21:36:51.067Z,17.80
2019-04-23T21:39:29.258Z,17.80
2019-04-23T21:44:39.441Z,17.70
2019-04-23T21:47:09.089Z,17.60
2019-04-23T21:49:53.608Z,17.60
2019-04-23T21:52:14.526Z,17.50
2019-04-23T21:57:17.960Z,17.50
2019-04-23T21:59:54.807Z,17.40
2019-04-23T22:02:32.225Z,17.40
2019-04-23T22:04:52.053Z,17.40
2019-04-23T22:07:31.309Z,17.30
2019-04-23T22:09:59.195Z,17.30
2019-04-23T22:12:23.035Z,17.20
2019-04-23T22:20:14.010Z,17.20
2019-04-23T22:22:45.491Z,17.20
2019-04-23T22:24:57.822Z,17.10
2019-04-23T22:27:32.615Z,17.10
2019-04-23T22:30:04.614Z,17.10
2019-04-23T22:35:07.985Z,17.10
2019-04-23T22:37:42.863Z,17.00
2019-04-23T22:40:04.434Z,17.00
2019-04-23T22:43:01.304Z,16.90
2019-04-23T22:45:16.083Z,16.90
2019-04-23T22:47:47.747Z,16.80
2019-04-23T22:52:53.810Z,16.80
2019-04-23T22:55:12.724Z,16.70
2019-04-23T23:00:16.686Z,16.60
2019-04-23T23:03:09.856Z,16.60
2019-04-23T23:08:20.561Z,16.50
2019-04-23T23:10:50.783Z,16.50
2019-04-23T23:13:18.508Z,16.50
2019-04-23T23:15:57.478Z,16.50
2019-04-23T23:23:21.462Z,16.30
2019-04-23T23:26:06.576Z,16.30
2019-04-23T23:28:35.302Z,16.30
2019-04-23T23:31:06.910Z,16.20
2019-04-23T23:33:36.274Z,16.10
2019-04-23T23:36:10.724Z,16.10
2019-04-23T23:41:15.683Z,16.00
2019-04-23T23:43:54.631Z,16.00
2019-04-23T23:46:24.444Z,16.00
2019-04-23T23:48:42.335Z,15.90
2019-04-23T23:58:56.996Z,15.80
